sensor_id;sensor_type;location;lat;lon;timestamp;P1;durP1;ratioP1;P2;durP2;ratioP2
16922;SDS011;8578;50.938;13.556;2023-03-19T00:00:31;12.67;;;6.47;;
16922;SDS011;8578;50.938;13.556;2023-03-19T00:02:58;12.40;;;6.87;;
16922;SDS011;8578;50.938;13.556;2023-03-19T00:05:26;11.97;;;6.57;;
16922;SDS011;8578;50.938;13.556;2023-03-19T00:07:55;12.20;;;6.23;;
16922;SDS011;8578;50.938;13.556;2023-03-19T00:10:22;15.07;;;6.90;;
16922;SDS011;8578;50.938;13.556;2023-03-19T00:12:50;12.63;;;6.70;;
16922;SDS011;8578;50.938;13.556;2023-03-19T00:15:17;13.27;;;7.07;;
16922;SDS011;8578;50.938;13.556;2023-03-19T00:17:45;13.80;;;6.37;;
16922;SDS011;8578;50.938;13.556;2023-03-19T00:20:12;11.60;;;6.90;;
16922;SDS011;8578;50.938;13.556;2023-03-19T00:22:41;15.20;;;7.07;;
16922;SDS011;8578;50.938;13.556;2023-03-19T00:25:10;13.77;;;6.50;;
16922;SDS011;8578;50.938;13.556;2023-03-19T00:27:37;14.30;;;6.70;;
16922;SDS011;8578;50.938;13.556;2023-03-19T00:30:06;12.17;;;6.53;;
16922;SDS011;8578;50.938;13.556;2023-03-19T00:32:34;14.73;;;7.00;;
16922;SDS011;8578;50.938;13.556;2023-03-19T00:35:02;15.33;;;6.93;;
16922;SDS011;8578;50.938;13.556;2023-03-19T00:37:31;12.20;;;6.70;;
16922;SDS011;8578;50.938;13.556;2023-03-19T00:39:58;14.80;;;8.27;;
16922;SDS011;8578;50.938;13.556;2023-03-19T00:42:27;16.47;;;8.43;;
16922;SDS011;8578;50.938;13.556;2023-03-19T00:44:55;14.23;;;8.13;;
16922;SDS011;8578;50.938;13.556;2023-03-19T00:47:23;14.77;;;7.23;;
16922;SDS011;8578;50.938;13.556;2023-03-19T00:49:51;11.70;;;6.67;;
16922;SDS011;8578;50.938;13.556;2023-03-19T00:52:18;13.07;;;6.83;;
16922;SDS011;8578;50.938;13.556;2023-03-19T00:54:47;12.60;;;6.77;;
16922;SDS011;8578;50.938;13.556;2023-03-19T00:57:15;10.73;;;6.50;;
16922;SDS011;8578;50.938;13.556;2023-03-19T00:59:43;10.87;;;5.97;;
16922;SDS011;8578;50.938;13.556;2023-03-19T01:02:11;13.17;;;6.93;;
16922;SDS011;8578;50.938;13.556;2023-03-19T01:04:38;12.77;;;6.60;;
16922;SDS011;8578;50.938;13.556;2023-03-19T01:07:06;12.70;;;6.67;;
16922;SDS011;8578;50.938;13.556;2023-03-19T01:09:33;14.23;;;7.30;;
16922;SDS011;8578;50.938;13.556;2023-03-19T01:12:01;13.37;;;6.87;;
16922;SDS011;8578;50.938;13.556;2023-03-19T01:14:30;11.53;;;6.60;;
16922;SDS011;8578;50.938;13.556;2023-03-19T01:16:59;12.73;;;6.93;;
16922;SDS011;8578;50.938;13.556;2023-03-19T01:19:27;14.13;;;7.00;;
16922;SDS011;8578;50.938;13.556;2023-03-19T01:21:54;11.63;;;6.37;;
16922;SDS011;8578;50.938;13.556;2023-03-19T01:24:22;12.10;;;6.60;;
16922;SDS011;8578;50.938;13.556;2023-03-19T01:26:52;12.33;;;6.40;;
16922;SDS011;8578;50.938;13.556;2023-03-19T01:29:27;12.83;;;6.90;;
16922;SDS011;8578;50.938;13.556;2023-03-19T01:31:57;13.23;;;6.40;;
16922;SDS011;8578;50.938;13.556;2023-03-19T01:34:44;11.23;;;6.43;;
16922;SDS011;8578;50.938;13.556;2023-03-19T01:37:14;12.77;;;6.17;;
16922;SDS011;8578;50.938;13.556;2023-03-19T01:39:43;11.33;;;6.37;;
16922;SDS011;8578;50.938;13.556;2023-03-19T01:42:12;15.53;;;7.23;;
16922;SDS011;8578;50.938;13.556;2023-03-19T01:44:47;12.07;;;6.40;;
16922;SDS011;8578;50.938;13.556;2023-03-19T01:47:37;13.77;;;6.70;;
16922;SDS011;8578;50.938;13.556;2023-03-19T01:50:14;11.50;;;6.70;;
16922;SDS011;8578;50.938;13.556;2023-03-19T01:52:50;14.20;;;6.93;;
16922;SDS011;8578;50.938;13.556;2023-03-19T01:55:27;12.03;;;7.20;;
16922;SDS011;8578;50.938;13.556;2023-03-19T01:58:13;17.27;;;6.53;;
16922;SDS011;8578;50.938;13.556;2023-03-19T02:01:03;15.03;;;7.03;;
16922;SDS011;8578;50.938;13.556;2023-03-19T02:03:33;12.37;;;7.07;;
16922;SDS011;8578;50.938;13.556;2023-03-19T02:06:14;16.00;;;7.80;;
16922;SDS011;8578;50.938;13.556;2023-03-19T02:08:42;17.53;;;7.50;;
16922;SDS011;8578;50.938;13.556;2023-03-19T02:11:10;11.90;;;6.57;;
16922;SDS011;8578;50.938;13.556;2023-03-19T02:13:37;13.60;;;6.50;;
16922;SDS011;8578;50.938;13.556;2023-03-19T02:16:05;11.57;;;6.87;;
16922;SDS011;8578;50.938;13.556;2023-03-19T02:18:33;13.27;;;6.83;;
16922;SDS011;8578;50.938;13.556;2023-03-19T02:21:04;13.50;;;6.47;;
16922;SDS011;8578;50.938;13.556;2023-03-19T02:23:34;12.03;;;6.93;;
16922;SDS011;8578;50.938;13.556;2023-03-19T02:26:13;11.17;;;6.63;;
16922;SDS011;8578;50.938;13.556;2023-03-19T02:28:43;12.50;;;6.97;;
16922;SDS011;8578;50.938;13.556;2023-03-19T02:31:14;15.07;;;7.17;;
16922;SDS011;8578;50.938;13.556;2023-03-19T02:33:43;13.40;;;7.10;;
16922;SDS011;8578;50.938;13.556;2023-03-19T02:36:11;10.43;;;6.27;;
16922;SDS011;8578;50.938;13.556;2023-03-19T02:38:40;11.57;;;6.57;;
16922;SDS011;8578;50.938;13.556;2023-03-19T02:41:09;12.07;;;6.30;;
16922;SDS011;8578;50.938;13.556;2023-03-19T02:43:39;12.03;;;6.53;;
16922;SDS011;8578;50.938;13.556;2023-03-19T02:46:08;12.63;;;7.03;;
16922;SDS011;8578;50.938;13.556;2023-03-19T02:48:39;11.73;;;6.70;;
16922;SDS011;8578;50.938;13.556;2023-03-19T02:51:07;11.37;;;6.27;;
16922;SDS011;8578;50.938;13.556;2023-03-19T02:53:34;11.30;;;6.50;;
16922;SDS011;8578;50.938;13.556;2023-03-19T02:56:02;16.67;;;7.07;;
16922;SDS011;8578;50.938;13.556;2023-03-19T02:58:29;12.90;;;6.83;;
16922;SDS011;8578;50.938;13.556;2023-03-19T03:00:58;12.13;;;6.33;;
16922;SDS011;8578;50.938;13.556;2023-03-19T03:03:27;11.13;;;6.17;;
16922;SDS011;8578;50.938;13.556;2023-03-19T03:05:55;11.97;;;6.70;;
16922;SDS011;8578;50.938;13.556;2023-03-19T03:08:22;12.83;;;6.73;;
16922;SDS011;8578;50.938;13.556;2023-03-19T03:10:50;13.07;;;6.83;;
16922;SDS011;8578;50.938;13.556;2023-03-19T03:13:17;12.80;;;6.30;;
16922;SDS011;8578;50.938;13.556;2023-03-19T03:15:45;15.47;;;6.70;;
16922;SDS011;8578;50.938;13.556;2023-03-19T03:18:13;12.53;;;6.43;;
16922;SDS011;8578;50.938;13.556;2023-03-19T03:20:41;11.77;;;7.00;;
16922;SDS011;8578;50.938;13.556;2023-03-19T03:23:08;10.70;;;6.43;;
16922;SDS011;8578;50.938;13.556;2023-03-19T03:25:36;16.03;;;7.67;;
16922;SDS011;8578;50.938;13.556;2023-03-19T03:28:04;13.13;;;7.07;;
16922;SDS011;8578;50.938;13.556;2023-03-19T03:30:31;13.60;;;7.00;;
16922;SDS011;8578;50.938;13.556;2023-03-19T03:32:59;10.70;;;6.47;;
16922;SDS011;8578;50.938;13.556;2023-03-19T03:35:28;15.43;;;7.33;;
16922;SDS011;8578;50.938;13.556;2023-03-19T03:37:56;11.40;;;6.90;;
16922;SDS011;8578;50.938;13.556;2023-03-19T03:40:24;13.23;;;6.80;;
16922;SDS011;8578;50.938;13.556;2023-03-19T03:42:52;13.40;;;6.67;;
16922;SDS011;8578;50.938;13.556;2023-03-19T03:45:20;14.67;;;7.57;;
16922;SDS011;8578;50.938;13.556;2023-03-19T03:47:49;13.43;;;6.80;;
16922;SDS011;8578;50.938;13.556;2023-03-19T03:50:17;9.60;;;6.43;;
16922;SDS011;8578;50.938;13.556;2023-03-19T03:52:48;12.00;;;6.93;;
16922;SDS011;8578;50.938;13.556;2023-03-19T03:55:15;12.80;;;7.13;;
16922;SDS011;8578;50.938;13.556;2023-03-19T03:57:43;13.33;;;7.37;;
16922;SDS011;8578;50.938;13.556;2023-03-19T04:00:11;16.27;;;7.70;;
16922;SDS011;8578;50.938;13.556;2023-03-19T04:02:39;14.30;;;6.80;;
16922;SDS011;8578;50.938;13.556;2023-03-19T04:05:11;15.33;;;7.47;;
16922;SDS011;8578;50.938;13.556;2023-03-19T04:07:38;13.33;;;6.93;;
16922;SDS011;8578;50.938;13.556;2023-03-19T04:10:09;13.87;;;7.57;;
16922;SDS011;8578;50.938;13.556;2023-03-19T04:12:37;12.53;;;6.70;;
16922;SDS011;8578;50.938;13.556;2023-03-19T04:15:05;11.43;;;6.70;;
16922;SDS011;8578;50.938;13.556;2023-03-19T04:17:35;16.60;;;7.87;;
16922;SDS011;8578;50.938;13.556;2023-03-19T04:20:04;13.73;;;7.30;;
16922;SDS011;8578;50.938;13.556;2023-03-19T04:22:31;11.17;;;6.53;;
16922;SDS011;8578;50.938;13.556;2023-03-19T04:24:59;14.27;;;6.90;;
16922;SDS011;8578;50.938;13.556;2023-03-19T04:27:27;16.07;;;7.30;;
16922;SDS011;8578;50.938;13.556;2023-03-19T04:29:55;11.87;;;7.07;;
16922;SDS011;8578;50.938;13.556;2023-03-19T04:32:23;13.60;;;6.93;;
16922;SDS011;8578;50.938;13.556;2023-03-19T04:34:51;14.00;;;7.10;;
16922;SDS011;8578;50.938;13.556;2023-03-19T04:37:18;13.60;;;6.90;;
16922;SDS011;8578;50.938;13.556;2023-03-19T04:39:48;11.47;;;6.50;;
16922;SDS011;8578;50.938;13.556;2023-03-19T04:42:17;15.83;;;6.77;;
16922;SDS011;8578;50.938;13.556;2023-03-19T04:44:59;12.47;;;6.90;;
16922;SDS011;8578;50.938;13.556;2023-03-19T04:47:27;12.60;;;6.93;;
16922;SDS011;8578;50.938;13.556;2023-03-19T04:49:57;14.30;;;7.17;;
16922;SDS011;8578;50.938;13.556;2023-03-19T04:52:25;16.17;;;7.10;;
16922;SDS011;8578;50.938;13.556;2023-03-19T04:54:53;11.33;;;6.30;;
16922;SDS011;8578;50.938;13.556;2023-03-19T04:57:20;11.77;;;6.53;;
16922;SDS011;8578;50.938;13.556;2023-03-19T04:59:51;13.77;;;6.30;;
16922;SDS011;8578;50.938;13.556;2023-03-19T05:02:21;15.20;;;6.80;;
16922;SDS011;8578;50.938;13.556;2023-03-19T05:04:49;10.43;;;6.30;;
16922;SDS011;8578;50.938;13.556;2023-03-19T05:07:16;12.03;;;6.47;;
16922;SDS011;8578;50.938;13.556;2023-03-19T05:09:44;11.17;;;6.23;;
16922;SDS011;8578;50.938;13.556;2023-03-19T05:12:14;15.37;;;6.07;;
16922;SDS011;8578;50.938;13.556;2023-03-19T05:14:46;13.27;;;6.53;;
16922;SDS011;8578;50.938;13.556;2023-03-19T05:17:19;10.67;;;6.70;;
16922;SDS011;8578;50.938;13.556;2023-03-19T05:20:11;14.70;;;6.07;;
16922;SDS011;8578;50.938;13.556;2023-03-19T05:22:46;11.80;;;6.47;;
16922;SDS011;8578;50.938;13.556;2023-03-19T05:25:15;11.90;;;6.17;;
16922;SDS011;8578;50.938;13.556;2023-03-19T05:27:44;11.43;;;6.20;;
16922;SDS011;8578;50.938;13.556;2023-03-19T05:30:17;11.43;;;6.17;;
16922;SDS011;8578;50.938;13.556;2023-03-19T05:32:57;13.20;;;6.13;;
16922;SDS011;8578;50.938;13.556;2023-03-19T05:35:41;11.43;;;5.87;;
16922;SDS011;8578;50.938;13.556;2023-03-19T05:38:17;10.27;;;6.00;;
16922;SDS011;8578;50.938;13.556;2023-03-19T05:40:52;10.90;;;6.30;;
16922;SDS011;8578;50.938;13.556;2023-03-19T05:43:26;12.10;;;6.20;;
16922;SDS011;8578;50.938;13.556;2023-03-19T05:45:54;8.57;;;5.20;;
16922;SDS011;8578;50.938;13.556;2023-03-19T05:48:26;10.80;;;5.43;;
16922;SDS011;8578;50.938;13.556;2023-03-19T05:50:55;10.03;;;5.67;;
16922;SDS011;8578;50.938;13.556;2023-03-19T05:53:28;11.83;;;5.90;;
16922;SDS011;8578;50.938;13.556;2023-03-19T05:56:14;11.97;;;5.40;;
16922;SDS011;8578;50.938;13.556;2023-03-19T05:58:55;9.40;;;5.30;;
16922;SDS011;8578;50.938;13.556;2023-03-19T06:01:28;13.43;;;5.93;;
16922;SDS011;8578;50.938;13.556;2023-03-19T06:03:57;9.53;;;5.83;;
16922;SDS011;8578;50.938;13.556;2023-03-19T06:06:27;12.17;;;5.53;;
16922;SDS011;8578;50.938;13.556;2023-03-19T06:08:54;10.63;;;5.60;;
16922;SDS011;8578;50.938;13.556;2023-03-19T06:11:33;9.80;;;5.37;;
16922;SDS011;8578;50.938;13.556;2023-03-19T06:14:22;10.27;;;5.27;;
16922;SDS011;8578;50.938;13.556;2023-03-19T06:17:10;11.40;;;5.83;;
16922;SDS011;8578;50.938;13.556;2023-03-19T06:19:37;10.83;;;5.80;;
16922;SDS011;8578;50.938;13.556;2023-03-19T06:22:07;11.43;;;6.03;;
16922;SDS011;8578;50.938;13.556;2023-03-19T06:24:34;10.90;;;5.60;;
16922;SDS011;8578;50.938;13.556;2023-03-19T06:27:02;10.10;;;5.37;;
16922;SDS011;8578;50.938;13.556;2023-03-19T06:29:30;11.67;;;5.90;;
16922;SDS011;8578;50.938;13.556;2023-03-19T06:32:10;11.90;;;6.40;;
16922;SDS011;8578;50.938;13.556;2023-03-19T06:34:40;10.57;;;6.10;;
16922;SDS011;8578;50.938;13.556;2023-03-19T06:37:09;10.73;;;5.67;;
16922;SDS011;8578;50.938;13.556;2023-03-19T06:39:37;10.07;;;5.30;;
16922;SDS011;8578;50.938;13.556;2023-03-19T06:42:05;9.10;;;4.83;;
16922;SDS011;8578;50.938;13.556;2023-03-19T06:44:33;9.10;;;5.53;;
16922;SDS011;8578;50.938;13.556;2023-03-19T06:47:00;8.30;;;4.77;;
16922;SDS011;8578;50.938;13.556;2023-03-19T06:49:28;10.90;;;5.37;;
16922;SDS011;8578;50.938;13.556;2023-03-19T06:51:55;11.73;;;5.20;;
16922;SDS011;8578;50.938;13.556;2023-03-19T06:54:24;11.93;;;5.83;;
16922;SDS011;8578;50.938;13.556;2023-03-19T06:56:52;8.97;;;5.13;;
16922;SDS011;8578;50.938;13.556;2023-03-19T06:59:19;8.93;;;5.07;;
16922;SDS011;8578;50.938;13.556;2023-03-19T07:01:47;9.57;;;5.30;;
16922;SDS011;8578;50.938;13.556;2023-03-19T07:04:14;7.13;;;4.40;;
16922;SDS011;8578;50.938;13.556;2023-03-19T07:06:42;9.03;;;5.40;;
16922;SDS011;8578;50.938;13.556;2023-03-19T07:09:09;8.17;;;4.97;;
16922;SDS011;8578;50.938;13.556;2023-03-19T07:11:38;10.07;;;5.77;;
16922;SDS011;8578;50.938;13.556;2023-03-19T07:14:05;10.30;;;5.47;;
16922;SDS011;8578;50.938;13.556;2023-03-19T07:16:33;9.70;;;5.77;;
16922;SDS011;8578;50.938;13.556;2023-03-19T07:19:00;9.67;;;5.57;;
16922;SDS011;8578;50.938;13.556;2023-03-19T07:21:28;10.17;;;5.30;;
16922;SDS011;8578;50.938;13.556;2023-03-19T07:23:55;10.43;;;5.43;;
16922;SDS011;8578;50.938;13.556;2023-03-19T07:26:23;9.00;;;5.27;;
16922;SDS011;8578;50.938;13.556;2023-03-19T07:28:52;11.90;;;5.33;;
16922;SDS011;8578;50.938;13.556;2023-03-19T07:31:19;10.53;;;5.07;;
16922;SDS011;8578;50.938;13.556;2023-03-19T07:33:47;9.07;;;5.17;;
16922;SDS011;8578;50.938;13.556;2023-03-19T07:36:14;11.10;;;4.90;;
16922;SDS011;8578;50.938;13.556;2023-03-19T07:38:42;9.43;;;5.07;;
16922;SDS011;8578;50.938;13.556;2023-03-19T07:41:09;8.90;;;4.90;;
16922;SDS011;8578;50.938;13.556;2023-03-19T07:43:37;10.13;;;5.33;;
16922;SDS011;8578;50.938;13.556;2023-03-19T07:46:05;9.83;;;5.30;;
16922;SDS011;8578;50.938;13.556;2023-03-19T07:48:33;8.63;;;5.13;;
16922;SDS011;8578;50.938;13.556;2023-03-19T07:51:01;10.90;;;5.50;;
16922;SDS011;8578;50.938;13.556;2023-03-19T07:53:28;8.83;;;5.13;;
16922;SDS011;8578;50.938;13.556;2023-03-19T07:55:56;9.23;;;5.20;;
16922;SDS011;8578;50.938;13.556;2023-03-19T07:58:23;12.03;;;5.50;;
16922;SDS011;8578;50.938;13.556;2023-03-19T08:00:51;9.47;;;5.30;;
16922;SDS011;8578;50.938;13.556;2023-03-19T08:03:20;9.37;;;5.20;;
16922;SDS011;8578;50.938;13.556;2023-03-19T08:05:48;9.60;;;5.20;;
16922;SDS011;8578;50.938;13.556;2023-03-19T08:08:16;12.00;;;5.13;;
16922;SDS011;8578;50.938;13.556;2023-03-19T08:10:44;13.10;;;5.53;;
16922;SDS011;8578;50.938;13.556;2023-03-19T08:13:13;8.87;;;5.30;;
16922;SDS011;8578;50.938;13.556;2023-03-19T08:15:40;10.27;;;5.50;;
16922;SDS011;8578;50.938;13.556;2023-03-19T08:18:08;10.10;;;5.27;;
16922;SDS011;8578;50.938;13.556;2023-03-19T08:20:37;10.00;;;5.67;;
16922;SDS011;8578;50.938;13.556;2023-03-19T08:23:04;10.80;;;5.27;;
16922;SDS011;8578;50.938;13.556;2023-03-19T08:25:32;9.63;;;5.77;;
16922;SDS011;8578;50.938;13.556;2023-03-19T08:27:59;9.63;;;5.53;;
16922;SDS011;8578;50.938;13.556;2023-03-19T08:30:27;11.40;;;5.63;;
16922;SDS011;8578;50.938;13.556;2023-03-19T08:32:55;12.47;;;6.17;;
16922;SDS011;8578;50.938;13.556;2023-03-19T08:35:23;14.80;;;6.53;;
16922;SDS011;8578;50.938;13.556;2023-03-19T08:37:53;11.93;;;6.20;;
16922;SDS011;8578;50.938;13.556;2023-03-19T08:40:21;12.03;;;6.20;;
16922;SDS011;8578;50.938;13.556;2023-03-19T08:42:49;12.00;;;5.87;;
16922;SDS011;8578;50.938;13.556;2023-03-19T08:45:18;11.40;;;5.50;;
16922;SDS011;8578;50.938;13.556;2023-03-19T08:47:45;12.10;;;6.00;;
16922;SDS011;8578;50.938;13.556;2023-03-19T08:50:14;12.17;;;5.60;;
16922;SDS011;8578;50.938;13.556;2023-03-19T08:52:41;12.30;;;6.27;;
16922;SDS011;8578;50.938;13.556;2023-03-19T08:55:10;12.93;;;5.80;;
16922;SDS011;8578;50.938;13.556;2023-03-19T08:57:38;11.80;;;5.80;;
16922;SDS011;8578;50.938;13.556;2023-03-19T09:00:05;9.20;;;4.90;;
16922;SDS011;8578;50.938;13.556;2023-03-19T09:02:33;11.83;;;5.17;;
16922;SDS011;8578;50.938;13.556;2023-03-19T09:05:01;11.57;;;5.43;;
16922;SDS011;8578;50.938;13.556;2023-03-19T09:07:28;10.03;;;4.63;;
16922;SDS011;8578;50.938;13.556;2023-03-19T09:09:56;9.07;;;4.97;;
16922;SDS011;8578;50.938;13.556;2023-03-19T09:12:25;9.60;;;5.17;;
16922;SDS011;8578;50.938;13.556;2023-03-19T09:14:52;13.43;;;5.40;;
16922;SDS011;8578;50.938;13.556;2023-03-19T09:17:19;10.77;;;5.27;;
16922;SDS011;8578;50.938;13.556;2023-03-19T09:19:47;10.33;;;5.40;;
16922;SDS011;8578;50.938;13.556;2023-03-19T09:22:14;11.93;;;5.37;;
16922;SDS011;8578;50.938;13.556;2023-03-19T09:24:41;9.97;;;4.93;;
16922;SDS011;8578;50.938;13.556;2023-03-19T09:27:09;11.33;;;5.17;;
16922;SDS011;8578;50.938;13.556;2023-03-19T09:29:37;9.60;;;5.17;;
16922;SDS011;8578;50.938;13.556;2023-03-19T09:32:06;11.30;;;5.20;;
16922;SDS011;8578;50.938;13.556;2023-03-19T09:34:33;11.27;;;5.63;;
16922;SDS011;8578;50.938;13.556;2023-03-19T09:37:01;13.53;;;5.27;;
16922;SDS011;8578;50.938;13.556;2023-03-19T09:39:28;12.07;;;4.80;;
16922;SDS011;8578;50.938;13.556;2023-03-19T09:42:02;11.57;;;5.43;;
16922;SDS011;8578;50.938;13.556;2023-03-19T09:44:33;12.00;;;5.60;;
16922;SDS011;8578;50.938;13.556;2023-03-19T09:47:07;13.80;;;5.67;;
16922;SDS011;8578;50.938;13.556;2023-03-19T09:49:37;11.23;;;5.80;;
16922;SDS011;8578;50.938;13.556;2023-03-19T09:52:08;10.80;;;5.10;;
16922;SDS011;8578;50.938;13.556;2023-03-19T09:54:41;10.50;;;5.27;;
16922;SDS011;8578;50.938;13.556;2023-03-19T09:57:11;12.27;;;5.77;;
16922;SDS011;8578;50.938;13.556;2023-03-19T09:59:40;13.00;;;5.40;;
16922;SDS011;8578;50.938;13.556;2023-03-19T10:02:28;13.33;;;6.13;;
16922;SDS011;8578;50.938;13.556;2023-03-19T10:05:00;8.20;;;4.87;;
16922;SDS011;8578;50.938;13.556;2023-03-19T10:07:35;14.07;;;6.03;;
16922;SDS011;8578;50.938;13.556;2023-03-19T10:10:09;10.87;;;5.17;;
16922;SDS011;8578;50.938;13.556;2023-03-19T10:12:44;13.40;;;5.60;;
16922;SDS011;8578;50.938;13.556;2023-03-19T10:15:16;12.37;;;5.87;;
16922;SDS011;8578;50.938;13.556;2023-03-19T10:17:48;14.00;;;5.60;;
16922;SDS011;8578;50.938;13.556;2023-03-19T10:20:19;10.00;;;5.50;;
16922;SDS011;8578;50.938;13.556;2023-03-19T10:22:48;12.23;;;5.27;;
16922;SDS011;8578;50.938;13.556;2023-03-19T10:25:18;13.63;;;6.00;;
16922;SDS011;8578;50.938;13.556;2023-03-19T10:27:49;9.23;;;4.77;;
16922;SDS011;8578;50.938;13.556;2023-03-19T10:30:19;10.33;;;4.97;;
16922;SDS011;8578;50.938;13.556;2023-03-19T10:32:49;14.23;;;5.27;;
16922;SDS011;8578;50.938;13.556;2023-03-19T10:35:20;12.03;;;5.57;;
16922;SDS011;8578;50.938;13.556;2023-03-19T10:37:49;11.77;;;5.23;;
16922;SDS011;8578;50.938;13.556;2023-03-19T10:40:19;10.83;;;4.83;;
16922;SDS011;8578;50.938;13.556;2023-03-19T10:42:52;9.17;;;5.10;;
16922;SDS011;8578;50.938;13.556;2023-03-19T10:45:23;10.40;;;5.30;;
16922;SDS011;8578;50.938;13.556;2023-03-19T10:47:53;9.33;;;4.90;;
16922;SDS011;8578;50.938;13.556;2023-03-19T10:50:26;13.13;;;4.97;;
16922;SDS011;8578;50.938;13.556;2023-03-19T10:52:58;11.70;;;5.00;;
16922;SDS011;8578;50.938;13.556;2023-03-19T10:55:28;9.60;;;5.13;;
16922;SDS011;8578;50.938;13.556;2023-03-19T10:58:00;12.13;;;5.73;;
16922;SDS011;8578;50.938;13.556;2023-03-19T11:00:29;9.63;;;4.87;;
16922;SDS011;8578;50.938;13.556;2023-03-19T11:02:58;10.50;;;4.90;;
16922;SDS011;8578;50.938;13.556;2023-03-19T11:05:30;8.60;;;5.07;;
16922;SDS011;8578;50.938;13.556;2023-03-19T11:07:58;10.20;;;4.93;;
16922;SDS011;8578;50.938;13.556;2023-03-19T11:10:27;11.13;;;4.57;;
16922;SDS011;8578;50.938;13.556;2023-03-19T11:12:56;14.40;;;5.00;;
16922;SDS011;8578;50.938;13.556;2023-03-19T11:15:25;11.97;;;4.70;;
16922;SDS011;8578;50.938;13.556;2023-03-19T11:17:57;8.27;;;4.63;;
16922;SDS011;8578;50.938;13.556;2023-03-19T11:20:28;11.80;;;4.90;;
16922;SDS011;8578;50.938;13.556;2023-03-19T11:22:57;10.33;;;4.77;;
16922;SDS011;8578;50.938;13.556;2023-03-19T11:25:28;8.97;;;4.13;;
16922;SDS011;8578;50.938;13.556;2023-03-19T11:27:56;7.90;;;4.77;;
16922;SDS011;8578;50.938;13.556;2023-03-19T11:30:24;9.30;;;4.43;;
16922;SDS011;8578;50.938;13.556;2023-03-19T11:35:42;8.63;;;3.93;;
16922;SDS011;8578;50.938;13.556;2023-03-19T11:38:13;10.63;;;4.90;;
16922;SDS011;8578;50.938;13.556;2023-03-19T11:40:44;8.67;;;4.37;;
16922;SDS011;8578;50.938;13.556;2023-03-19T11:43:38;8.83;;;4.80;;
16922;SDS011;8578;50.938;13.556;2023-03-19T11:46:08;7.60;;;4.30;;
16922;SDS011;8578;50.938;13.556;2023-03-19T11:48:40;7.67;;;4.23;;
16922;SDS011;8578;50.938;13.556;2023-03-19T11:51:15;13.87;;;5.27;;
16922;SDS011;8578;50.938;13.556;2023-03-19T11:53:50;11.80;;;4.97;;
16922;SDS011;8578;50.938;13.556;2023-03-19T11:56:20;8.70;;;4.63;;
16922;SDS011;8578;50.938;13.556;2023-03-19T11:58:53;9.30;;;5.33;;
16922;SDS011;8578;50.938;13.556;2023-03-19T12:01:29;10.53;;;4.93;;
16922;SDS011;8578;50.938;13.556;2023-03-19T12:04:03;9.60;;;4.90;;
16922;SDS011;8578;50.938;13.556;2023-03-19T12:06:37;9.63;;;5.13;;
16922;SDS011;8578;50.938;13.556;2023-03-19T12:09:07;11.27;;;5.00;;
16922;SDS011;8578;50.938;13.556;2023-03-19T12:11:38;10.87;;;5.17;;
16922;SDS011;8578;50.938;13.556;2023-03-19T12:14:19;9.93;;;4.77;;
16922;SDS011;8578;50.938;13.556;2023-03-19T12:16:51;7.63;;;4.80;;
16922;SDS011;8578;50.938;13.556;2023-03-19T12:19:30;9.00;;;5.20;;
16922;SDS011;8578;50.938;13.556;2023-03-19T12:22:03;9.47;;;4.43;;
16922;SDS011;8578;50.938;13.556;2023-03-19T12:24:36;8.63;;;4.50;;
16922;SDS011;8578;50.938;13.556;2023-03-19T12:27:12;7.50;;;4.30;;
16922;SDS011;8578;50.938;13.556;2023-03-19T12:29:45;8.80;;;4.30;;
16922;SDS011;8578;50.938;13.556;2023-03-19T12:32:21;8.47;;;4.53;;
16922;SDS011;8578;50.938;13.556;2023-03-19T12:34:54;7.10;;;4.00;;
16922;SDS011;8578;50.938;13.556;2023-03-19T12:37:25;7.40;;;4.47;;
16922;SDS011;8578;50.938;13.556;2023-03-19T12:40:00;9.83;;;4.60;;
16922;SDS011;8578;50.938;13.556;2023-03-19T12:42:33;6.73;;;4.13;;
16922;SDS011;8578;50.938;13.556;2023-03-19T12:45:04;7.70;;;4.50;;
16922;SDS011;8578;50.938;13.556;2023-03-19T12:47:32;9.17;;;4.27;;
16922;SDS011;8578;50.938;13.556;2023-03-19T12:50:02;7.20;;;3.70;;
16922;SDS011;8578;50.938;13.556;2023-03-19T12:52:32;6.07;;;3.20;;
16922;SDS011;8578;50.938;13.556;2023-03-19T12:55:03;9.70;;;2.97;;
16922;SDS011;8578;50.938;13.556;2023-03-19T12:57:33;11.10;;;3.50;;
16922;SDS011;8578;50.938;13.556;2023-03-19T13:00:04;8.23;;;4.30;;
16922;SDS011;8578;50.938;13.556;2023-03-19T13:02:34;6.70;;;3.37;;
16922;SDS011;8578;50.938;13.556;2023-03-19T13:05:04;5.17;;;3.20;;
16922;SDS011;8578;50.938;13.556;2023-03-19T13:07:38;7.10;;;3.80;;
16922;SDS011;8578;50.938;13.556;2023-03-19T13:10:08;5.37;;;3.03;;
16922;SDS011;8578;50.938;13.556;2023-03-19T13:12:37;7.03;;;3.23;;
16922;SDS011;8578;50.938;13.556;2023-03-19T13:15:05;6.87;;;2.60;;
16922;SDS011;8578;50.938;13.556;2023-03-19T13:17:36;5.00;;;2.50;;
16922;SDS011;8578;50.938;13.556;2023-03-19T13:20:13;3.97;;;2.10;;
16922;SDS011;8578;50.938;13.556;2023-03-19T13:22:46;3.40;;;2.00;;
16922;SDS011;8578;50.938;13.556;2023-03-19T13:25:14;3.57;;;2.20;;
16922;SDS011;8578;50.938;13.556;2023-03-19T13:27:42;6.07;;;2.70;;
16922;SDS011;8578;50.938;13.556;2023-03-19T13:30:19;3.40;;;2.20;;
16922;SDS011;8578;50.938;13.556;2023-03-19T13:32:48;3.43;;;2.43;;
16922;SDS011;8578;50.938;13.556;2023-03-19T13:35:19;4.40;;;1.87;;
16922;SDS011;8578;50.938;13.556;2023-03-19T13:37:54;4.87;;;2.20;;
16922;SDS011;8578;50.938;13.556;2023-03-19T13:40:38;5.37;;;2.20;;
16922;SDS011;8578;50.938;13.556;2023-03-19T13:43:19;4.17;;;1.80;;
16922;SDS011;8578;50.938;13.556;2023-03-19T13:46:01;5.37;;;1.70;;
16922;SDS011;8578;50.938;13.556;2023-03-19T13:48:35;4.47;;;2.07;;
16922;SDS011;8578;50.938;13.556;2023-03-19T13:51:04;5.73;;;2.13;;
16922;SDS011;8578;50.938;13.556;2023-03-19T13:53:52;2.33;;;1.57;;
16922;SDS011;8578;50.938;13.556;2023-03-19T13:56:20;2.67;;;1.80;;
16922;SDS011;8578;50.938;13.556;2023-03-19T14:01:39;4.20;;;1.77;;
16922;SDS011;8578;50.938;13.556;2023-03-19T14:04:14;3.53;;;1.50;;
16922;SDS011;8578;50.938;13.556;2023-03-19T14:06:44;1.60;;;1.27;;
16922;SDS011;8578;50.938;13.556;2023-03-19T14:09:34;3.00;;;1.60;;
16922;SDS011;8578;50.938;13.556;2023-03-19T14:12:09;2.97;;;1.70;;
16922;SDS011;8578;50.938;13.556;2023-03-19T14:14:38;4.17;;;2.00;;
16922;SDS011;8578;50.938;13.556;2023-03-19T14:17:11;4.53;;;2.20;;
16922;SDS011;8578;50.938;13.556;2023-03-19T14:19:39;2.50;;;1.87;;
16922;SDS011;8578;50.938;13.556;2023-03-19T14:22:08;3.17;;;1.87;;
16922;SDS011;8578;50.938;13.556;2023-03-19T14:24:38;3.07;;;2.00;;
16922;SDS011;8578;50.938;13.556;2023-03-19T14:27:24;2.80;;;1.73;;
16922;SDS011;8578;50.938;13.556;2023-03-19T14:29:54;2.97;;;1.87;;
16922;SDS011;8578;50.938;13.556;2023-03-19T14:32:27;3.57;;;2.00;;
16922;SDS011;8578;50.938;13.556;2023-03-19T14:34:58;2.77;;;1.70;;
16922;SDS011;8578;50.938;13.556;2023-03-19T14:37:28;4.03;;;2.50;;
16922;SDS011;8578;50.938;13.556;2023-03-19T14:40:01;5.03;;;1.90;;
16922;SDS011;8578;50.938;13.556;2023-03-19T14:42:31;6.50;;;2.63;;
16922;SDS011;8578;50.938;13.556;2023-03-19T14:45:16;4.00;;;2.23;;
16922;SDS011;8578;50.938;13.556;2023-03-19T14:50:37;4.10;;;2.40;;
16922;SDS011;8578;50.938;13.556;2023-03-19T14:53:09;5.13;;;2.27;;
16922;SDS011;8578;50.938;13.556;2023-03-19T14:55:41;3.37;;;2.27;;
16922;SDS011;8578;50.938;13.556;2023-03-19T14:58:09;3.53;;;2.10;;
16922;SDS011;8578;50.938;13.556;2023-03-19T15:00:38;4.20;;;2.40;;
16922;SDS011;8578;50.938;13.556;2023-03-19T15:03:11;5.00;;;1.87;;
16922;SDS011;8578;50.938;13.556;2023-03-19T15:05:40;3.87;;;2.00;;